sensor_id;sensor_type;location;lat;lon;timestamp;pressure;altitude;pressure_sealevel;temperature;humidity
13593;BME280;6867;50.998;4.250;2022-07-06T00:01:43;102430.09;;;10.98;100.00
13593;BME280;6867;50.998;4.250;2022-07-06T00:04:10;102426.88;;;10.95;100.00
13593;BME280;6867;50.998;4.250;2022-07-06T00:06:37;102428.75;;;10.94;100.00
13593;BME280;6867;50.998;4.250;2022-07-06T00:09:05;102430.78;;;10.92;100.00
13593;BME280;6867;50.998;4.250;2022-07-06T00:11:32;102426.75;;;10.88;100.00
13593;BME280;6867;50.998;4.250;2022-07-06T00:13:58;102427.91;;;10.86;100.00
13593;BME280;6867;50.998;4.250;2022-07-06T00:16:26;102424.91;;;10.89;100.00
13593;BME280;6867;50.998;4.250;2022-07-06T00:18:53;102421.88;;;10.84;100.00
13593;BME280;6867;50.998;4.250;2022-07-06T00:21:20;102417.84;;;10.80;100.00
13593;BME280;6867;50.998;4.250;2022-07-06T00:23:47;102419.84;;;10.78;100.00
13593;BME280;6867;50.998;4.250;2022-07-06T00:26:14;102415.81;;;10.73;100.00
13593;BME280;6867;50.998;4.250;2022-07-06T00:28:41;102415.81;;;10.65;100.00
13593;BME280;6867;50.998;4.250;2022-07-06T00:31:07;102417.34;;;10.60;100.00
13593;BME280;6867;50.998;4.250;2022-07-06T00:33:35;102422.53;;;10.61;100.00
13593;BME280;6867;50.998;4.250;2022-07-06T00:36:03;102413.63;;;10.53;100.00
13593;BME280;6867;50.998;4.250;2022-07-06T00:38:29;102407.75;;;10.49;100.00
13593;BME280;6867;50.998;4.250;2022-07-06T00:40:56;102425.06;;;10.46;100.00
13593;BME280;6867;50.998;4.250;2022-07-06T00:43:23;102421.53;;;10.46;100.00
13593;BME280;6867;50.998;4.250;2022-07-06T00:45:49;102420.19;;;10.42;100.00
13593;BME280;6867;50.998;4.250;2022-07-06T00:48:16;102420.00;;;10.43;100.00
13593;BME280;6867;50.998;4.250;2022-07-06T00:50:44;102421.22;;;10.41;100.00
13593;BME280;6867;50.998;4.250;2022-07-06T00:53:12;102418.66;;;10.39;100.00
13593;BME280;6867;50.998;4.250;2022-07-06T00:55:40;102416.31;;;10.36;100.00
13593;BME280;6867;50.998;4.250;2022-07-06T00:58:07;102408.59;;;10.25;100.00
13593;BME280;6867;50.998;4.250;2022-07-06T01:00:34;102414.44;;;10.20;100.00
13593;BME280;6867;50.998;4.250;2022-07-06T01:03:01;102417.44;;;10.17;100.00
13593;BME280;6867;50.998;4.250;2022-07-06T01:05:29;102421.13;;;10.16;100.00
13593;BME280;6867;50.998;4.250;2022-07-06T01:07:57;102421.66;;;10.20;100.00
13593;BME280;6867;50.998;4.250;2022-07-06T01:10:26;102405.03;;;10.16;100.00
13593;BME280;6867;50.998;4.250;2022-07-06T01:12:53;102401.97;;;10.11;100.00
13593;BME280;6867;50.998;4.250;2022-07-06T01:15:22;102407.34;;;10.11;100.00
13593;BME280;6867;50.998;4.250;2022-07-06T01:17:50;102402.97;;;10.02;100.00
13593;BME280;6867;50.998;4.250;2022-07-06T01:20:19;102406.66;;;10.01;100.00
13593;BME280;6867;50.998;4.250;2022-07-06T01:22:47;102404.16;;;10.00;100.00
13593;BME280;6867;50.998;4.250;2022-07-06T01:25:14;102407.16;;;9.96;100.00
13593;BME280;6867;50.998;4.250;2022-07-06T01:27:42;102401.09;;;9.94;100.00
13593;BME280;6867;50.998;4.250;2022-07-06T01:30:11;102411.81;;;9.94;100.00
13593;BME280;6867;50.998;4.250;2022-07-06T01:32:39;102406.13;;;9.89;100.00
13593;BME280;6867;50.998;4.250;2022-07-06T01:35:08;102408.28;;;9.86;100.00
13593;BME280;6867;50.998;4.250;2022-07-06T01:37:36;102409.59;;;9.82;100.00
13593;BME280;6867;50.998;4.250;2022-07-06T01:40:05;102411.09;;;9.76;100.00
13593;BME280;6867;50.998;4.250;2022-07-06T01:42:33;102404.72;;;9.77;100.00
13593;BME280;6867;50.998;4.250;2022-07-06T01:45:00;102403.72;;;9.70;100.00
13593;BME280;6867;50.998;4.250;2022-07-06T01:47:26;102397.97;;;9.65;100.00
13593;BME280;6867;50.998;4.250;2022-07-06T01:49:54;102400.34;;;9.68;100.00
13593;BME280;6867;50.998;4.250;2022-07-06T01:52:20;102399.50;;;9.67;100.00
13593;BME280;6867;50.998;4.250;2022-07-06T01:54:48;102392.13;;;9.69;100.00
13593;BME280;6867;50.998;4.250;2022-07-06T01:57:15;102397.31;;;9.63;100.00
13593;BME280;6867;50.998;4.250;2022-07-06T01:59:42;102386.91;;;9.60;100.00
13593;BME280;6867;50.998;4.250;2022-07-06T02:02:08;102392.56;;;9.57;100.00
13593;BME280;6867;50.998;4.250;2022-07-06T02:04:36;102398.28;;;9.54;100.00
13593;BME280;6867;50.998;4.250;2022-07-06T02:07:03;102399.13;;;9.54;100.00
13593;BME280;6867;50.998;4.250;2022-07-06T02:09:29;102398.59;;;9.51;100.00
13593;BME280;6867;50.998;4.250;2022-07-06T02:11:58;102395.91;;;9.51;100.00
13593;BME280;6867;50.998;4.250;2022-07-06T02:14:24;102399.44;;;9.51;100.00
13593;BME280;6867;50.998;4.250;2022-07-06T02:16:51;102397.06;;;9.48;100.00
13593;BME280;6867;50.998;4.250;2022-07-06T02:19:18;102396.41;;;9.46;100.00
13593;BME280;6867;50.998;4.250;2022-07-06T02:21:45;102399.22;;;9.44;100.00
13593;BME280;6867;50.998;4.250;2022-07-06T02:24:12;102402.25;;;9.41;100.00
13593;BME280;6867;50.998;4.250;2022-07-06T02:26:38;102401.88;;;9.36;100.00
13593;BME280;6867;50.998;4.250;2022-07-06T02:29:06;102395.03;;;9.42;100.00
13593;BME280;6867;50.998;4.250;2022-07-06T02:31:33;102395.53;;;9.37;100.00
13593;BME280;6867;50.998;4.250;2022-07-06T02:34:00;102398.88;;;9.39;100.00
13593;BME280;6867;50.998;4.250;2022-07-06T02:36:27;102397.03;;;9.40;100.00
13593;BME280;6867;50.998;4.250;2022-07-06T02:38:53;102388.63;;;9.35;100.00
13593;BME280;6867;50.998;4.250;2022-07-06T02:41:20;102387.97;;;9.33;100.00
13593;BME280;6867;50.998;4.250;2022-07-06T02:43:47;102387.44;;;9.29;100.00
13593;BME280;6867;50.998;4.250;2022-07-06T02:46:15;102383.38;;;9.25;100.00
13593;BME280;6867;50.998;4.250;2022-07-06T02:48:42;102381.34;;;9.19;100.00
13593;BME280;6867;50.998;4.250;2022-07-06T02:51:09;102386.69;;;9.19;100.00
13593;BME280;6867;50.998;4.250;2022-07-06T02:53:35;102379.66;;;9.18;100.00
13593;BME280;6867;50.998;4.250;2022-07-06T02:56:02;102379.31;;;9.13;100.00
13593;BME280;6867;50.998;4.250;2022-07-06T02:58:29;102374.25;;;9.10;100.00
13593;BME280;6867;50.998;4.250;2022-07-06T03:00:56;102373.88;;;9.05;100.00
13593;BME280;6867;50.998;4.250;2022-07-06T03:03:24;102384.63;;;9.05;100.00
13593;BME280;6867;50.998;4.250;2022-07-06T03:05:50;102381.56;;;9.00;100.00
13593;BME280;6867;50.998;4.250;2022-07-06T03:08:17;102394.81;;;9.01;100.00
13593;BME280;6867;50.998;4.250;2022-07-06T03:10:44;102382.94;;;9.04;100.00
13593;BME280;6867;50.998;4.250;2022-07-06T03:13:10;102387.28;;;9.05;100.00
13593;BME280;6867;50.998;4.250;2022-07-06T03:15:37;102383.59;;;9.06;100.00
13593;BME280;6867;50.998;4.250;2022-07-06T03:18:04;102386.97;;;9.08;100.00
13593;BME280;6867;50.998;4.250;2022-07-06T03:20:32;102388.66;;;9.09;100.00
13593;BME280;6867;50.998;4.250;2022-07-06T03:22:58;102386.28;;;9.06;100.00
13593;BME280;6867;50.998;4.250;2022-07-06T03:25:25;102395.03;;;9.08;100.00
13593;BME280;6867;50.998;4.250;2022-07-06T03:27:52;102389.31;;;9.11;100.00
13593;BME280;6867;50.998;4.250;2022-07-06T03:30:19;102382.16;;;9.11;100.00
13593;BME280;6867;50.998;4.250;2022-07-06T03:32:46;102389.19;;;9.12;100.00
13593;BME280;6867;50.998;4.250;2022-07-06T03:35:13;102389.84;;;9.14;100.00
13593;BME280;6867;50.998;4.250;2022-07-06T03:37:41;102389.22;;;9.20;100.00
13593;BME280;6867;50.998;4.250;2022-07-06T03:40:08;102389.75;;;9.24;100.00
13593;BME280;6867;50.998;4.250;2022-07-06T03:42:35;102404.53;;;9.28;100.00
13593;BME280;6867;50.998;4.250;2022-07-06T03:45:02;102395.31;;;9.31;100.00
13593;BME280;6867;50.998;4.250;2022-07-06T03:47:29;102410.09;;;9.35;100.00
13593;BME280;6867;50.998;4.250;2022-07-06T03:49:56;102408.59;;;9.40;100.00
13593;BME280;6867;50.998;4.250;2022-07-06T03:52:23;102405.47;;;9.45;100.00
13593;BME280;6867;50.998;4.250;2022-07-06T03:54:51;102397.25;;;9.46;100.00
13593;BME280;6867;50.998;4.250;2022-07-06T03:57:17;102403.63;;;9.45;100.00
13593;BME280;6867;50.998;4.250;2022-07-06T03:59:44;102407.97;;;9.46;100.00
13593;BME280;6867;50.998;4.250;2022-07-06T04:02:11;102412.00;;;9.51;100.00
13593;BME280;6867;50.998;4.250;2022-07-06T04:04:37;102400.78;;;9.55;100.00
13593;BME280;6867;50.998;4.250;2022-07-06T04:07:04;102407.53;;;9.59;100.00
13593;BME280;6867;50.998;4.250;2022-07-06T04:09:31;102411.91;;;9.68;100.00
13593;BME280;6867;50.998;4.250;2022-07-06T04:11:59;102403.91;;;9.77;100.00
13593;BME280;6867;50.998;4.250;2022-07-06T04:14:25;102407.75;;;9.82;100.00
13593;BME280;6867;50.998;4.250;2022-07-06T04:16:52;102406.13;;;9.89;100.00
13593;BME280;6867;50.998;4.250;2022-07-06T04:19:19;102413.38;;;10.05;100.00
13593;BME280;6867;50.998;4.250;2022-07-06T04:21:46;102415.06;;;10.14;100.00
13593;BME280;6867;50.998;4.250;2022-07-06T04:24:12;102412.91;;;10.18;100.00
13593;BME280;6867;50.998;4.250;2022-07-06T04:26:39;102408.41;;;10.27;100.00
13593;BME280;6867;50.998;4.250;2022-07-06T04:29:07;102403.56;;;10.38;100.00
13593;BME280;6867;50.998;4.250;2022-07-06T04:31:34;102406.25;;;10.46;100.00
13593;BME280;6867;50.998;4.250;2022-07-06T04:34:00;102399.88;;;10.56;100.00
13593;BME280;6867;50.998;4.250;2022-07-06T04:36:27;102396.03;;;10.66;100.00
13593;BME280;6867;50.998;4.250;2022-07-06T04:38:54;102400.38;;;10.84;100.00
13593;BME280;6867;50.998;4.250;2022-07-06T04:41:21;102393.78;;;10.94;100.00
13593;BME280;6867;50.998;4.250;2022-07-06T04:43:47;102387.22;;;11.05;100.00
13593;BME280;6867;50.998;4.250;2022-07-06T04:46:16;102379.66;;;11.17;100.00
13593;BME280;6867;50.998;4.250;2022-07-06T04:48:42;102381.78;;;11.30;100.00
13593;BME280;6867;50.998;4.250;2022-07-06T04:51:09;102382.41;;;11.40;100.00
13593;BME280;6867;50.998;4.250;2022-07-06T04:53:35;102388.78;;;11.47;100.00
13593;BME280;6867;50.998;4.250;2022-07-06T04:56:03;102385.56;;;11.52;100.00
13593;BME280;6867;50.998;4.250;2022-07-06T04:58:30;102388.75;;;11.55;100.00
13593;BME280;6867;50.998;4.250;2022-07-06T05:00:56;102393.38;;;11.69;100.00
13593;BME280;6867;50.998;4.250;2022-07-06T05:03:25;102392.16;;;11.88;100.00
13593;BME280;6867;50.998;4.250;2022-07-06T05:05:51;102391.69;;;12.08;100.00
13593;BME280;6867;50.998;4.250;2022-07-06T05:08:18;102392.91;;;12.28;100.00
13593;BME280;6867;50.998;4.250;2022-07-06T05:10:45;102394.09;;;12.49;100.00
13593;BME280;6867;50.998;4.250;2022-07-06T05:13:11;102391.47;;;12.78;100.00
13593;BME280;6867;50.998;4.250;2022-07-06T05:15:38;102385.84;;;13.03;98.44
13593;BME280;6867;50.998;4.250;2022-07-06T05:18:05;102374.94;;;13.34;96.28
13593;BME280;6867;50.998;4.250;2022-07-06T05:20:33;102371.38;;;13.63;94.70
13593;BME280;6867;50.998;4.250;2022-07-06T05:22:59;102375.34;;;14.03;93.28
13593;BME280;6867;50.998;4.250;2022-07-06T05:25:26;102373.09;;;14.07;92.79
13593;BME280;6867;50.998;4.250;2022-07-06T05:27:53;102388.97;;;14.53;92.17
13593;BME280;6867;50.998;4.250;2022-07-06T05:30:20;102376.09;;;15.11;90.99
13593;BME280;6867;50.998;4.250;2022-07-06T05:32:47;102366.25;;;15.86;89.46
13593;BME280;6867;50.998;4.250;2022-07-06T05:35:14;102358.00;;;16.54;86.80
13593;BME280;6867;50.998;4.250;2022-07-06T05:37:42;102342.56;;;16.94;84.56
13593;BME280;6867;50.998;4.250;2022-07-06T05:40:11;102317.44;;;17.70;81.89
13593;BME280;6867;50.998;4.250;2022-07-06T05:42:37;102297.13;;;18.11;79.04
13593;BME280;6867;50.998;4.250;2022-07-06T05:45:05;102285.31;;;18.24;77.37
13593;BME280;6867;50.998;4.250;2022-07-06T05:47:32;102290.44;;;18.57;76.64
13593;BME280;6867;50.998;4.250;2022-07-06T05:50:16;102284.38;;;18.80;75.15
13593;BME280;6867;50.998;4.250;2022-07-06T05:52:55;102254.97;;;18.88;73.26
13593;BME280;6867;50.998;4.250;2022-07-06T05:55:22;102248.22;;;18.73;72.40
13593;BME280;6867;50.998;4.250;2022-07-06T05:57:49;102271.31;;;18.63;73.01
13593;BME280;6867;50.998;4.250;2022-07-06T06:00:17;102262.75;;;18.85;72.32
13593;BME280;6867;50.998;4.250;2022-07-06T06:02:43;102252.34;;;18.57;70.98
13593;BME280;6867;50.998;4.250;2022-07-06T06:05:10;102312.06;;;18.27;73.55
13593;BME280;6867;50.998;4.250;2022-07-06T06:07:38;102308.56;;;17.88;73.67
13593;BME280;6867;50.998;4.250;2022-07-06T06:10:09;102323.41;;;18.17;74.21
13593;BME280;6867;50.998;4.250;2022-07-06T06:12:36;102301.22;;;18.20;73.12
13593;BME280;6867;50.998;4.250;2022-07-06T06:15:04;102313.44;;;18.11;73.48
13593;BME280;6867;50.998;4.250;2022-07-06T06:17:32;102316.31;;;18.16;73.71
13593;BME280;6867;50.998;4.250;2022-07-06T06:19:59;102343.69;;;17.89;74.96
13593;BME280;6867;50.998;4.250;2022-07-06T06:22:26;102306.53;;;18.58;73.45
13593;BME280;6867;50.998;4.250;2022-07-06T06:24:53;102274.69;;;18.84;71.53
13593;BME280;6867;50.998;4.250;2022-07-06T06:27:21;102262.94;;;18.65;71.01
13593;BME280;6867;50.998;4.250;2022-07-06T06:29:47;102259.19;;;18.84;70.40
13593;BME280;6867;50.998;4.250;2022-07-06T06:32:14;102254.78;;;19.02;69.72
13593;BME280;6867;50.998;4.250;2022-07-06T06:34:40;102235.59;;;19.15;68.42
13593;BME280;6867;50.998;4.250;2022-07-06T06:37:07;102239.53;;;19.19;68.48
13593;BME280;6867;50.998;4.250;2022-07-06T06:39:34;102241.25;;;19.44;67.83
13593;BME280;6867;50.998;4.250;2022-07-06T06:42:01;102246.88;;;19.60;67.76
13593;BME280;6867;50.998;4.250;2022-07-06T06:44:29;102240.72;;;19.23;67.53
13593;BME280;6867;50.998;4.250;2022-07-06T06:46:56;102235.59;;;18.97;67.47
13593;BME280;6867;50.998;4.250;2022-07-06T06:49:23;102275.22;;;19.29;67.99
13593;BME280;6867;50.998;4.250;2022-07-06T06:51:49;102269.41;;;19.56;67.50
13593;BME280;6867;50.998;4.250;2022-07-06T06:54:16;102242.94;;;19.45;66.98
13593;BME280;6867;50.998;4.250;2022-07-06T06:56:43;102245.72;;;19.56;66.09
13593;BME280;6867;50.998;4.250;2022-07-06T06:59:10;102244.22;;;19.72;65.89
13593;BME280;6867;50.998;4.250;2022-07-06T07:01:38;102251.09;;;19.63;66.07
13593;BME280;6867;50.998;4.250;2022-07-06T07:04:05;102253.19;;;19.31;66.25
13593;BME280;6867;50.998;4.250;2022-07-06T07:06:32;102281.72;;;19.28;67.62
13593;BME280;6867;50.998;4.250;2022-07-06T07:08:59;102268.88;;;19.65;66.44
13593;BME280;6867;50.998;4.250;2022-07-06T07:11:25;102235.00;;;19.73;65.13
13593;BME280;6867;50.998;4.250;2022-07-06T07:13:52;102268.31;;;19.75;66.04
13593;BME280;6867;50.998;4.250;2022-07-06T07:16:19;102265.78;;;20.04;65.29
13593;BME280;6867;50.998;4.250;2022-07-06T07:18:47;102230.19;;;20.81;63.61
13593;BME280;6867;50.998;4.250;2022-07-06T07:21:13;102195.31;;;21.40;61.63
13593;BME280;6867;50.998;4.250;2022-07-06T07:23:40;102186.16;;;21.06;61.30
13593;BME280;6867;50.998;4.250;2022-07-06T07:26:07;102156.41;;;21.21;59.83
13593;BME280;6867;50.998;4.250;2022-07-06T07:28:34;102097.91;;;21.51;57.44
13593;BME280;6867;50.998;4.250;2022-07-06T07:31:00;102100.00;;;21.15;57.42
13593;BME280;6867;50.998;4.250;2022-07-06T07:33:27;102116.47;;;21.82;57.17
13593;BME280;6867;50.998;4.250;2022-07-06T07:35:55;102056.66;;;22.08;54.92
13593;BME280;6867;50.998;4.250;2022-07-06T07:38:22;102044.16;;;21.95;54.09
13593;BME280;6867;50.998;4.250;2022-07-06T07:40:49;102057.50;;;22.30;53.69
13593;BME280;6867;50.998;4.250;2022-07-06T07:43:16;102013.38;;;21.83;52.51
13593;BME280;6867;50.998;4.250;2022-07-06T07:45:42;102020.72;;;21.44;53.12
13593;BME280;6867;50.998;4.250;2022-07-06T07:48:09;102064.97;;;21.57;53.74
13593;BME280;6867;50.998;4.250;2022-07-06T07:50:36;102079.91;;;21.88;53.65
13593;BME280;6867;50.998;4.250;2022-07-06T07:53:04;102091.22;;;22.14;54.08
13593;BME280;6867;50.998;4.250;2022-07-06T07:55:31;102031.66;;;22.21;52.07
13593;BME280;6867;50.998;4.250;2022-07-06T07:57:58;101957.28;;;22.83;49.13
13593;BME280;6867;50.998;4.250;2022-07-06T08:00:24;101977.94;;;23.28;48.93
13593;BME280;6867;50.998;4.250;2022-07-06T08:02:52;101964.50;;;22.95;49.14
13593;BME280;6867;50.998;4.250;2022-07-06T08:05:19;102024.09;;;23.42;49.83
13593;BME280;6867;50.998;4.250;2022-07-06T08:07:46;102024.84;;;23.69;49.21
13593;BME280;6867;50.998;4.250;2022-07-06T08:10:14;101998.28;;;23.80;48.30
13593;BME280;6867;50.998;4.250;2022-07-06T08:12:41;101970.09;;;23.95;47.76
13593;BME280;6867;50.998;4.250;2022-07-06T08:15:08;101958.78;;;23.33;47.78
13593;BME280;6867;50.998;4.250;2022-07-06T08:17:35;101951.69;;;23.00;47.48
13593;BME280;6867;50.998;4.250;2022-07-06T08:20:02;101979.66;;;23.45;47.78
13593;BME280;6867;50.998;4.250;2022-07-06T08:22:28;101959.59;;;23.81;46.52
13593;BME280;6867;50.998;4.250;2022-07-06T08:24:56;101937.78;;;24.22;45.86
13593;BME280;6867;50.998;4.250;2022-07-06T08:27:24;101951.06;;;24.66;45.01
13593;BME280;6867;50.998;4.250;2022-07-06T08:29:51;101925.50;;;24.91;43.99
13593;BME280;6867;50.998;4.250;2022-07-06T08:32:18;101896.88;;;25.38;43.00
13593;BME280;6867;50.998;4.250;2022-07-06T08:34:46;101903.19;;;25.39;42.78
13593;BME280;6867;50.998;4.250;2022-07-06T08:37:13;101892.72;;;25.36;42.11
13593;BME280;6867;50.998;4.250;2022-07-06T08:39:40;101912.44;;;25.63;42.09
13593;BME280;6867;50.998;4.250;2022-07-06T08:42:07;101898.50;;;26.04;41.06
13593;BME280;6867;50.998;4.250;2022-07-06T08:44:37;101945.53;;;25.43;43.24
13593;BME280;6867;50.998;4.250;2022-07-06T08:47:05;101967.69;;;25.82;43.15
13593;BME280;6867;50.998;4.250;2022-07-06T08:49:33;101944.50;;;24.88;44.05
13593;BME280;6867;50.998;4.250;2022-07-06T08:52:03;101882.88;;;24.99;42.29
13593;BME280;6867;50.998;4.250;2022-07-06T08:54:30;101906.00;;;24.77;42.84
13593;BME280;6867;50.998;4.250;2022-07-06T08:56:57;101931.28;;;24.54;43.75
13593;BME280;6867;50.998;4.250;2022-07-06T08:59:25;101956.03;;;25.10;43.47
13593;BME280;6867;50.998;4.250;2022-07-06T09:01:55;101906.91;;;25.68;41.40
13593;BME280;6867;50.998;4.250;2022-07-06T09:04:22;101911.91;;;26.16;41.07
13593;BME280;6867;50.998;4.250;2022-07-06T09:06:49;101919.28;;;25.71;41.88
13593;BME280;6867;50.998;4.250;2022-07-06T09:09:19;101872.81;;;25.64;40.58
13593;BME280;6867;50.998;4.250;2022-07-06T09:11:46;101908.13;;;26.06;40.71
13593;BME280;6867;50.998;4.250;2022-07-06T09:14:13;101884.84;;;26.28;40.01
13593;BME280;6867;50.998;4.250;2022-07-06T09:16:40;101874.31;;;25.96;39.55
13593;BME280;6867;50.998;4.250;2022-07-06T09:19:10;101887.66;;;26.23;39.78
13593;BME280;6867;50.998;4.250;2022-07-06T09:21:37;101925.78;;;26.79;40.12
13593;BME280;6867;50.998;4.250;2022-07-06T09:24:07;101932.84;;;27.24;39.49
13593;BME280;6867;50.998;4.250;2022-07-06T09:26:34;101910.91;;;27.14;39.33
13593;BME280;6867;50.998;4.250;2022-07-06T09:29:01;101952.91;;;26.67;40.96
13593;BME280;6867;50.998;4.250;2022-07-06T09:31:28;101946.47;;;26.81;40.42
13593;BME280;6867;50.998;4.250;2022-07-06T09:33:56;101905.19;;;27.00;39.25
13593;BME280;6867;50.998;4.250;2022-07-06T09:36:40;101953.19;;;26.65;41.00
13593;BME280;6867;50.998;4.250;2022-07-06T09:39:21;101929.69;;;25.89;41.38
13593;BME280;6867;50.998;4.250;2022-07-06T09:41:49;101935.78;;;25.76;41.34
13593;BME280;6867;50.998;4.250;2022-07-06T09:44:23;101960.03;;;26.28;41.42
13593;BME280;6867;50.998;4.250;2022-07-06T09:46:51;101967.63;;;26.52;41.15
13593;BME280;6867;50.998;4.250;2022-07-06T09:49:19;101931.19;;;25.56;41.69
13593;BME280;6867;50.998;4.250;2022-07-06T09:51:49;101967.00;;;25.36;42.93
13593;BME280;6867;50.998;4.250;2022-07-06T09:54:16;101931.47;;;25.49;41.56
13593;BME280;6867;50.998;4.250;2022-07-06T09:56:44;101968.84;;;25.61;42.25
13593;BME280;6867;50.998;4.250;2022-07-06T09:59:18;101971.56;;;25.71;41.96
13593;BME280;6867;50.998;4.250;2022-07-06T10:01:47;101955.53;;;25.98;41.53
13593;BME280;6867;50.998;4.250;2022-07-06T10:04:17;101920.47;;;26.14;40.31
13593;BME280;6867;50.998;4.250;2022-07-06T10:06:46;101939.88;;;26.33;40.73
13593;BME280;6867;50.998;4.250;2022-07-06T10:09:15;101935.53;;;26.71;39.69
13593;BME280;6867;50.998;4.250;2022-07-06T10:11:47;101989.16;;;25.75;42.14
13593;BME280;6867;50.998;4.250;2022-07-06T10:14:17;101981.84;;;25.24;42.51
13593;BME280;6867;50.998;4.250;2022-07-06T10:16:45;102021.13;;;24.74;44.53
13593;BME280;6867;50.998;4.250;2022-07-06T10:19:13;101995.03;;;24.87;42.97
13593;BME280;6867;50.998;4.250;2022-07-06T10:21:40;101967.28;;;24.83;42.57
13593;BME280;6867;50.998;4.250;2022-07-06T10:24:08;102032.16;;;24.79;44.28
13593;BME280;6867;50.998;4.250;2022-07-06T10:26:38;102061.81;;;24.82;44.96
13593;BME280;6867;50.998;4.250;2022-07-06T10:29:06;102073.44;;;25.09;44.87
13593;BME280;6867;50.998;4.250;2022-07-06T10:31:35;102032.41;;;25.08;44.19
13593;BME280;6867;50.998;4.250;2022-07-06T10:34:06;102042.31;;;25.60;43.54
13593;BME280;6867;50.998;4.250;2022-07-06T10:36:37;102012.91;;;25.45;42.77
13593;BME280;6867;50.998;4.250;2022-07-06T10:39:04;102038.75;;;25.49;43.72
13593;BME280;6867;50.998;4.250;2022-07-06T10:41:52;102075.38;;;25.29;45.19
13593;BME280;6867;50.998;4.250;2022-07-06T10:44:20;102024.81;;;26.16;42.66
13593;BME280;6867;50.998;4.250;2022-07-06T10:46:51;101987.84;;;26.32;41.67
13593;BME280;6867;50.998;4.250;2022-07-06T10:49:20;101938.88;;;26.97;39.74
13593;BME280;6867;50.998;4.250;2022-07-06T10:51:47;101915.13;;;27.30;39.05
13593;BME280;6867;50.998;4.250;2022-07-06T10:54:15;101912.47;;;27.68;37.94
13593;BME280;6867;50.998;4.250;2022-07-06T10:56:43;101877.63;;;27.72;37.15
13593;BME280;6867;50.998;4.250;2022-07-06T10:59:13;101879.44;;;27.15;38.15
13593;BME280;6867;50.998;4.250;2022-07-06T11:01:41;101889.94;;;26.50;38.96
13593;BME280;6867;50.998;4.250;2022-07-06T11:04:31;101964.13;;;25.76;41.77
13593;BME280;6867;50.998;4.250;2022-07-06T11:07:07;102014.50;;;25.77;42.74
13593;BME280;6867;50.998;4.250;2022-07-06T11:09:35;101936.47;;;25.42;41.60
13593;BME280;6867;50.998;4.250;2022-07-06T11:12:12;101943.28;;;26.20;40.47
13593;BME280;6867;50.998;4.250;2022-07-06T11:14:40;102007.34;;;26.46;41.82
13593;BME280;6867;50.998;4.250;2022-07-06T11:17:09;101944.69;;;26.12;40.51
13593;BME280;6867;50.998;4.250;2022-07-06T11:19:36;101978.00;;;25.15;42.67
13593;BME280;6867;50.998;4.250;2022-07-06T11:22:06;101983.13;;;25.78;42.08
13593;BME280;6867;50.998;4.250;2022-07-06T11:24:35;102012.00;;;26.50;41.40
13593;BME280;6867;50.998;4.250;2022-07-06T11:27:02;102007.31;;;26.51;41.58
13593;BME280;6867;50.998;4.250;2022-07-06T11:29:30;101955.22;;;26.54;40.44
13593;BME280;6867;50.998;4.250;2022-07-06T11:31:59;101990.44;;;26.13;42.04
13593;BME280;6867;50.998;4.250;2022-07-06T11:34:30;102039.34;;;26.81;42.34
13593;BME280;6867;50.998;4.250;2022-07-06T11:36:59;101974.63;;;26.34;41.29
13593;BME280;6867;50.998;4.250;2022-07-06T11:39:26;101990.41;;;26.68;41.22
13593;BME280;6867;50.998;4.250;2022-07-06T11:41:54;101993.06;;;26.33;41.69
13593;BME280;6867;50.998;4.250;2022-07-06T11:44:21;101974.59;;;26.78;40.66
13593;BME280;6867;50.998;4.250;2022-07-06T11:46:48;101945.91;;;27.08;39.59
13593;BME280;6867;50.998;4.250;2022-07-06T11:49:17;101894.81;;;27.45;38.13
13593;BME280;6867;50.998;4.250;2022-07-06T11:51:45;101887.63;;;27.68;37.61
13593;BME280;6867;50.998;4.250;2022-07-06T11:54:14;101836.28;;;27.24;37.04
13593;BME280;6867;50.998;4.250;2022-07-06T11:56:46;101903.66;;;26.60;39.60
13593;BME280;6867;50.998;4.250;2022-07-06T11:59:14;101913.13;;;25.99;40.70
13593;BME280;6867;50.998;4.250;2022-07-06T12:01:42;101947.78;;;25.15;42.46
13593;BME280;6867;50.998;4.250;2022-07-06T12:04:10;102015.88;;;24.52;44.75
13593;BME280;6867;50.998;4.250;2022-07-06T12:06:38;102023.72;;;24.18;45.68
13593;BME280;6867;50.998;4.250;2022-07-06T12:09:05;102043.22;;;23.74;46.67
13593;BME280;6867;50.998;4.250;2022-07-06T12:11:34;102022.47;;;23.83;46.35
13593;BME280;6867;50.998;4.250;2022-07-06T12:14:02;102001.75;;;24.28;45.15
13593;BME280;6867;50.998;4.250;2022-07-06T12:16:30;101944.41;;;24.36;43.10
13593;BME280;6867;50.998;4.250;2022-07-06T12:18:58;102037.56;;;24.43;45.86
13593;BME280;6867;50.998;4.250;2022-07-06T12:21:25;101955.75;;;24.76;43.39
13593;BME280;6867;50.998;4.250;2022-07-06T12:23:54;101937.88;;;24.94;42.47
13593;BME280;6867;50.998;4.250;2022-07-06T12:26:22;102009.66;;;25.13;44.43
13593;BME280;6867;50.998;4.250;2022-07-06T12:29:00;102000.53;;;25.48;43.48
13593;BME280;6867;50.998;4.250;2022-07-06T12:31:31;101947.13;;;25.59;42.33
13593;BME280;6867;50.998;4.250;2022-07-06T12:33:59;101922.84;;;25.76;41.56
13593;BME280;6867;50.998;4.250;2022-07-06T12:36:25;101915.03;;;25.03;42.66
13593;BME280;6867;50.998;4.250;2022-07-06T12:38:54;101899.41;;;24.83;42.12
13593;BME280;6867;50.998;4.250;2022-07-06T12:41:28;101840.47;;;25.36;39.69
13593;BME280;6867;50.998;4.250;2022-07-06T12:44:04;101853.78;;;25.73;39.32
13593;BME280;6867;50.998;4.250;2022-07-06T12:46:33;101944.59;;;25.73;41.60
13593;BME280;6867;50.998;4.250;2022-07-06T12:49:02;101956.88;;;26.55;41.01
13593;BME280;6867;50.998;4.250;2022-07-06T12:51:48;101868.50;;;27.53;37.98
13593;BME280;6867;50.998;4.250;2022-07-06T12:54:16;101805.09;;;27.67;35.93
13593;BME280;6867;50.998;4.250;2022-07-06T12:57:03;101837.56;;;26.55;37.88
13593;BME280;6867;50.998;4.250;2022-07-06T12:59:32;101841.72;;;26.81;37.61
13593;BME280;6867;50.998;4.250;2022-07-06T13:02:00;101814.50;;;26.99;36.92